createdAt,value
2019-05-21T00:00:02.640Z,99.90
2019-05-21T00:02:32.842Z,99.90
2019-05-21T00:05:01.648Z,99.90
2019-05-21T00:07:31.370Z,99.90
2019-05-21T00:10:00.013Z,99.90
2019-05-21T00:12:28.725Z,99.90
2019-05-21T00:14:57.198Z,99.90
2019-05-21T00:17:25.780Z,99.90
2019-05-21T00:19:54.397Z,99.90
2019-05-21T00:22:25.738Z,99.90
2019-05-21T00:24:54.430Z,99.90
2019-05-21T00:27:23.210Z,99.90
2019-05-21T00:30:28.131Z,99.90
2019-05-21T00:33:33.525Z,99.90
2019-05-21T00:36:38.683Z,99.90
2019-05-21T00:39:43.650Z,99.90
2019-05-21T00:42:11.414Z,99.90
2019-05-21T00:44:42.620Z,99.90
2019-05-21T00:47:12.879Z,99.90
2019-05-21T00:49:41.738Z,99.90
2019-05-21T00:52:10.507Z,99.90
2019-05-21T00:54:39.178Z,99.90
2019-05-21T00:57:07.692Z,99.90
2019-05-21T00:59:35.930Z,99.90
2019-05-21T01:02:04.535Z,99.90
2019-05-21T01:04:33.186Z,99.90
2019-05-21T01:07:01.864Z,99.90
2019-05-21T01:09:30.433Z,99.90
2019-05-21T01:11:59.365Z,99.90
2019-05-21T01:14:27.995Z,99.90
2019-05-21T01:16:56.497Z,99.90
2019-05-21T01:19:25.184Z,99.90
2019-05-21T01:21:53.127Z,99.90
2019-05-21T01:24:21.872Z,99.90
2019-05-21T01:26:50.459Z,99.90
2019-05-21T01:29:18.374Z,99.90
2019-05-21T01:31:46.541Z,99.90
2019-05-21T01:34:15.067Z,99.90
2019-05-21T01:36:43.666Z,99.90
2019-05-21T01:39:12.320Z,99.90
2019-05-21T01:41:41.088Z,99.90
2019-05-21T01:44:09.664Z,99.90
2019-05-21T01:46:38.389Z,99.90
2019-05-21T01:49:07.201Z,99.90
2019-05-21T01:51:35.901Z,99.90
2019-05-21T01:54:04.935Z,99.90
2019-05-21T01:56:33.542Z,99.90
2019-05-21T01:59:02.169Z,99.90
2019-05-21T02:01:30.857Z,99.90
2019-05-21T02:03:59.412Z,99.90
2019-05-21T02:06:28.171Z,99.90
2019-05-21T02:08:56.952Z,99.90
2019-05-21T02:11:25.610Z,99.90
2019-05-21T02:13:54.255Z,99.90
2019-05-21T02:16:22.849Z,99.90
2019-05-21T02:18:51.412Z,99.90
2019-05-21T02:21:20.105Z,99.90
2019-05-21T02:23:49.223Z,99.90
2019-05-21T02:26:17.950Z,99.90
2019-05-21T02:28:46.512Z,99.90
2019-05-21T02:31:15.845Z,99.90
2019-05-21T02:33:44.502Z,99.90
2019-05-21T02:36:13.037Z,99.90
2019-05-21T02:38:41.648Z,99.90
2019-05-21T02:41:10.437Z,99.90
2019-05-21T02:43:38.977Z,99.90
2019-05-21T02:46:07.587Z,99.90
2019-05-21T02:48:37.890Z,99.90
2019-05-21T02:51:06.506Z,99.90
2019-05-21T02:53:35.105Z,99.90
2019-05-21T02:56:03.850Z,99.90
2019-05-21T02:58:33.568Z,99.90
2019-05-21T03:01:10.082Z,99.90
2019-05-21T03:03:38.641Z,99.90
2019-05-21T03:06:13.992Z,99.90
2019-05-21T03:08:37.655Z,99.90
2019-05-21T03:11:07.718Z,99.90
2019-05-21T03:13:37.862Z,99.90
2019-05-21T03:16:06.599Z,99.90
2019-05-21T03:18:35.282Z,99.90
2019-05-21T03:21:03.992Z,99.90
2019-05-21T03:23:32.639Z,99.90
2019-05-21T03:26:01.330Z,99.90
2019-05-21T03:28:30.057Z,99.90
2019-05-21T03:30:58.713Z,99.90
2019-05-21T03:33:27.857Z,99.90
2019-05-21T03:35:56.605Z,99.90
2019-05-21T03:38:25.199Z,99.90
2019-05-21T03:40:53.887Z,99.90
2019-05-21T03:43:23.056Z,99.90
2019-05-21T03:45:51.593Z,99.90
2019-05-21T03:48:20.245Z,99.90
2019-05-21T03:50:49.240Z,99.90
2019-05-21T03:53:17.881Z,99.90
2019-05-21T03:55:46.533Z,99.90
2019-05-21T03:58:15.841Z,99.90
2019-05-21T04:00:44.592Z,99.90
2019-05-21T04:03:13.109Z,99.90
2019-05-21T04:05:42.929Z,99.90
2019-05-21T04:08:12.254Z,99.90
2019-05-21T04:10:40.915Z,99.90
2019-05-21T04:13:09.802Z,99.90
2019-05-21T04:15:41.822Z,99.90
2019-05-21T04:18:12.199Z,99.90
2019-05-21T04:20:44.088Z,99.90
2019-05-21T04:23:12.750Z,99.90
2019-05-21T04:25:41.918Z,99.90
2019-05-21T04:28:09.808Z,99.90
2019-05-21T04:30:39.102Z,99.90
2019-05-21T04:33:07.787Z,99.90
2019-05-21T04:35:35.684Z,99.90
2019-05-21T04:38:04.339Z,99.90
2019-05-21T04:40:33.144Z,99.90
2019-05-21T04:43:02.386Z,99.90
2019-05-21T04:45:31.438Z,99.90
2019-05-21T04:48:00.260Z,99.90
2019-05-21T04:50:29.070Z,99.90
2019-05-21T04:52:57.878Z,99.90
2019-05-21T04:55:26.369Z,99.90
2019-05-21T04:57:54.849Z,99.90
2019-05-21T05:00:23.306Z,99.90
2019-05-21T05:02:51.902Z,99.90
2019-05-21T05:05:20.699Z,99.90
2019-05-21T05:07:49.391Z,99.90
2019-05-21T05:10:17.206Z,99.90
2019-05-21T05:12:44.898Z,99.90
2019-05-21T05:15:12.766Z,99.90
2019-05-21T05:17:41.323Z,99.90
2019-05-21T05:20:09.250Z,99.90
2019-05-21T05:22:37.063Z,99.90
2019-05-21T05:25:07.287Z,99.90
2019-05-21T05:27:35.259Z,99.90
2019-05-21T05:30:04.928Z,99.90
2019-05-21T05:32:32.696Z,99.90
2019-05-21T05:35:01.313Z,99.90
2019-05-21T05:37:42.843Z,99.90
2019-05-21T05:39:58.676Z,99.90
2019-05-21T05:42:27.208Z,99.90
2019-05-21T05:44:55.932Z,99.90
2019-05-21T05:47:25.614Z,99.90
2019-05-21T05:49:55.838Z,99.90
2019-05-21T05:52:24.723Z,99.90
2019-05-21T05:54:53.481Z,99.90
2019-05-21T05:57:22.080Z,99.90
2019-05-21T05:59:50.632Z,99.90
2019-05-21T06:02:19.113Z,99.90
2019-05-21T06:04:47.727Z,99.90
2019-05-21T06:07:16.414Z,99.90
2019-05-21T06:09:45.114Z,99.90
2019-05-21T06:12:13.830Z,99.90
2019-05-21T06:14:41.800Z,99.90
2019-05-21T06:17:10.356Z,99.90
2019-05-21T06:19:39.081Z,99.90
2019-05-21T06:22:07.571Z,99.90
2019-05-21T06:24:36.191Z,99.90
2019-05-21T06:27:05.062Z,99.90
2019-05-21T06:29:34.013Z,99.90
2019-05-21T06:32:02.798Z,99.90
2019-05-21T06:34:34.450Z,99.90
2019-05-21T06:37:03.104Z,99.90
2019-05-21T06:39:31.656Z,99.90
2019-05-21T06:42:01.047Z,99.90
2019-05-21T06:44:30.249Z,99.90
2019-05-21T06:47:01.087Z,99.90
2019-05-21T06:49:29.884Z,99.90
2019-05-21T06:51:59.225Z,99.90
2019-05-21T06:54:27.950Z,99.90
2019-05-21T06:56:56.578Z,99.90
2019-05-21T06:59:25.291Z,99.90
2019-05-21T07:01:53.857Z,99.90
2019-05-21T07:04:22.459Z,99.90
2019-05-21T07:06:51.131Z,99.90
2019-05-21T07:09:19.852Z,99.90
2019-05-21T07:11:48.422Z,99.90
2019-05-21T07:14:17.110Z,99.90
2019-05-21T07:16:45.718Z,99.90
2019-05-21T07:19:14.274Z,99.90
2019-05-21T07:21:42.954Z,99.90
2019-05-21T07:24:11.547Z,99.90
2019-05-21T07:26:40.256Z,99.90
2019-05-21T07:29:08.841Z,99.90
2019-05-21T07:31:37.575Z,99.90
2019-05-21T07:34:06.320Z,99.90
2019-05-21T07:36:34.960Z,99.90
2019-05-21T07:39:06.251Z,99.90
2019-05-21T07:41:34.767Z,99.90
2019-05-21T07:44:03.487Z,99.90
2019-05-21T07:46:31.937Z,99.90
2019-05-21T07:49:01.251Z,99.90
2019-05-21T07:51:29.856Z,99.90
2019-05-21T07:53:58.599Z,99.90
2019-05-21T07:56:27.383Z,99.90
2019-05-21T07:58:56.069Z,99.90
2019-05-21T08:01:24.670Z,99.90
2019-05-21T08:03:53.904Z,99.90
2019-05-21T08:06:22.426Z,99.90
2019-05-21T08:08:50.994Z,99.90
2019-05-21T08:11:19.509Z,99.90
2019-05-21T08:13:49.146Z,99.90
2019-05-21T08:16:17.741Z,99.90
2019-05-21T08:18:46.326Z,99.90
2019-05-21T08:21:14.934Z,99.90
2019-05-21T08:23:43.561Z,99.90
2019-05-21T08:26:12.368Z,99.90
2019-05-21T08:28:40.961Z,99.90
2019-05-21T08:31:09.475Z,99.90
2019-05-21T08:33:38.021Z,99.90
2019-05-21T08:36:06.527Z,99.90
2019-05-21T08:38:35.341Z,99.90
2019-05-21T08:41:04.241Z,99.90
2019-05-21T08:43:32.834Z,99.90
2019-05-21T08:46:02.932Z,99.90
2019-05-21T08:48:31.556Z,99.90
2019-05-21T08:51:01.141Z,99.90
2019-05-21T08:53:29.763Z,99.90
2019-05-21T08:55:58.289Z,99.90
2019-05-21T08:58:26.924Z,99.90
2019-05-21T09:00:55.536Z,99.90
2019-05-21T09:03:24.167Z,99.90
2019-05-21T09:05:52.679Z,99.90
2019-05-21T09:08:21.338Z,99.90
2019-05-21T09:10:50.078Z,99.90
2019-05-21T09:13:18.866Z,99.90
2019-05-21T09:15:47.487Z,99.90
2019-05-21T09:18:16.064Z,99.90
2019-05-21T09:20:44.779Z,99.90
2019-05-21T09:23:13.457Z,99.90
2019-05-21T09:25:42.145Z,99.90
2019-05-21T09:28:10.851Z,99.90
2019-05-21T09:30:39.610Z,99.90
2019-05-21T09:33:08.099Z,99.90
2019-05-21T09:35:36.788Z,99.90
2019-05-21T09:38:05.461Z,99.90
2019-05-21T09:40:34.616Z,99.90
2019-05-21T09:43:03.286Z,99.90
2019-05-21T09:45:31.914Z,99.90
2019-05-21T09:48:00.776Z,99.90
2019-05-21T09:50:29.464Z,99.90
2019-05-21T09:52:58.135Z,99.90
2019-05-21T09:55:26.772Z,99.90
2019-05-21T09:57:57.044Z,99.90
2019-05-21T10:00:36.750Z,99.90
2019-05-21T10:03:07.074Z,99.90
2019-05-21T10:05:35.711Z,99.90
2019-05-21T10:08:04.529Z,99.90
2019-05-21T10:10:34.018Z,99.90
2019-05-21T10:13:02.916Z,99.90
2019-05-21T10:15:31.432Z,99.90
2019-05-21T10:18:00.026Z,99.90
2019-05-21T10:20:28.692Z,99.90
2019-05-21T10:22:57.402Z,99.90
2019-05-21T10:25:26.077Z,99.90
2019-05-21T10:27:54.755Z,99.90
2019-05-21T10:30:24.045Z,99.90
2019-05-21T10:32:52.619Z,99.90
2019-05-21T10:35:22.024Z,99.90
2019-05-21T10:37:54.817Z,99.90
2019-05-21T10:40:21.349Z,99.90
2019-05-21T10:42:49.889Z,99.90
2019-05-21T10:45:18.515Z,99.90
2019-05-21T10:47:48.155Z,99.90
2019-05-21T10:50:16.935Z,99.90
2019-05-21T10:52:45.640Z,99.90
2019-05-21T10:55:17.746Z,99.90
2019-05-21T10:57:47.175Z,99.90
2019-05-21T11:00:22.928Z,99.90
2019-05-21T11:02:58.903Z,99.90
2019-05-21T11:05:29.220Z,99.90
2019-05-21T11:08:20.773Z,99.90
2019-05-21T11:10:28.434Z,99.90
2019-05-21T11:12:57.085Z,99.90
2019-05-21T11:15:25.906Z,99.90
2019-05-21T11:18:09.881Z,99.90
2019-05-21T11:20:24.865Z,99.90
2019-05-21T11:22:53.455Z,99.90
2019-05-21T11:25:22.192Z,99.90
2019-05-21T11:27:51.074Z,99.90
2019-05-21T11:30:19.715Z,99.90
2019-05-21T11:32:48.223Z,99.60
2019-05-21T11:35:16.973Z,99.00
2019-05-21T11:37:47.842Z,99.90
2019-05-21T11:40:17.399Z,99.90
2019-05-21T11:42:45.913Z,99.90
2019-05-21T11:45:31.092Z,99.90
2019-05-21T11:47:44.779Z,98.40
2019-05-21T11:50:13.631Z,95.90
2019-05-21T11:52:42.450Z,95.60
2019-05-21T11:55:11.197Z,94.40
2019-05-21T11:57:39.840Z,92.70
2019-05-21T12:00:09.984Z,91.30
2019-05-21T12:02:38.726Z,87.60
2019-05-21T12:05:08.470Z,86.10
2019-05-21T12:07:37.052Z,88.10
2019-05-21T12:10:08.799Z,88.20
2019-05-21T12:12:36.597Z,82.50
2019-05-21T12:15:07.287Z,83.30
2019-05-21T12:17:35.886Z,83.70
2019-05-21T12:20:07.221Z,80.80
2019-05-21T12:22:35.822Z,81.00
2019-05-21T12:25:05.300Z,80.80
2019-05-21T12:27:33.797Z,79.20
2019-05-21T12:30:02.405Z,80.30
2019-05-21T12:32:31.211Z,78.40
2019-05-21T12:34:59.727Z,78.40
2019-05-21T12:37:28.185Z,76.50
2019-05-21T12:39:56.805Z,74.70
2019-05-21T12:42:25.474Z,75.20
2019-05-21T12:44:54.319Z,76.90
2019-05-21T12:47:22.913Z,78.00
2019-05-21T12:49:51.654Z,78.20
2019-05-21T12:52:22.164Z,79.10
2019-05-21T12:54:50.507Z,80.80
2019-05-21T12:57:18.970Z,79.70
2019-05-21T12:59:47.641Z,78.40
2019-05-21T13:02:16.203Z,79.20
2019-05-21T13:04:44.731Z,78.40
2019-05-21T13:07:13.299Z,76.50
2019-05-21T13:09:41.862Z,76.10
2019-05-21T13:12:10.411Z,74.70
2019-05-21T13:14:38.940Z,72.30
2019-05-21T13:17:09.115Z,73.50
2019-05-21T13:19:37.741Z,73.30
2019-05-21T13:22:07.507Z,73.10
2019-05-21T13:24:36.180Z,74.50
2019-05-21T13:27:06.010Z,74.50
2019-05-21T13:29:34.732Z,72.60
2019-05-21T13:32:03.784Z,73.40
2019-05-21T13:34:31.782Z,74.60
2019-05-21T13:37:01.871Z,75.50
2019-05-21T13:39:30.651Z,73.10
2019-05-21T13:41:59.307Z,73.30
2019-05-21T13:44:28.023Z,74.30
2019-05-21T13:47:00.243Z,74.30
2019-05-21T13:49:28.901Z,76.80
2019-05-21T13:51:57.628Z,76.80
2019-05-21T13:54:26.383Z,75.30
2019-05-21T13:56:54.955Z,74.70
2019-05-21T13:59:23.582Z,75.90
2019-05-21T14:01:52.815Z,76.40
2019-05-21T14:04:22.007Z,76.60
2019-05-21T14:06:50.698Z,75.60
2019-05-21T14:09:19.319Z,73.30
2019-05-21T14:11:48.336Z,72.90
2019-05-21T14:14:16.891Z,71.40
2019-05-21T14:16:47.120Z,71.50
2019-05-21T14:19:15.829Z,71.30
2019-05-21T14:21:44.303Z,70.60
2019-05-21T14:24:12.907Z,71.30
2019-05-21T14:26:41.686Z,71.90
2019-05-21T14:29:10.432Z,72.70
2019-05-21T14:31:38.978Z,72.80
2019-05-21T14:34:08.213Z,74.30
2019-05-21T14:36:37.098Z,74.20
2019-05-21T14:39:09.188Z,75.10
2019-05-21T14:41:37.977Z,75.60
2019-05-21T14:44:06.698Z,75.80
2019-05-21T14:46:35.304Z,75.40
2019-05-21T14:49:03.925Z,75.30
2019-05-21T14:51:32.737Z,73.90
2019-05-21T14:54:05.324Z,73.50
2019-05-21T14:56:34.016Z,73.30
2019-05-21T14:59:02.618Z,73.60
2019-05-21T15:01:31.313Z,74.20
2019-05-21T15:04:00.038Z,76.40
2019-05-21T15:06:28.692Z,77.60
2019-05-21T15:08:57.374Z,78.00
2019-05-21T15:11:25.980Z,78.00
2019-05-21T15:13:54.606Z,78.60
2019-05-21T15:16:23.265Z,79.60
2019-05-21T15:18:51.919Z,80.70
2019-05-21T15:21:34.956Z,82.10
2019-05-21T15:24:04.027Z,83.20
2019-05-21T15:26:33.158Z,84.00
2019-05-21T15:29:03.037Z,84.60
2019-05-21T15:31:31.739Z,85.60
2019-05-21T15:34:00.330Z,87.90
2019-05-21T15:36:28.988Z,89.40
2019-05-21T15:38:57.664Z,90.70
2019-05-21T15:41:26.335Z,91.10
2019-05-21T15:43:55.156Z,92.50
2019-05-21T15:46:23.677Z,93.40
2019-05-21T15:48:52.340Z,93.60
2019-05-21T15:51:21.655Z,94.30
2019-05-21T15:53:50.959Z,94.90
2019-05-21T15:56:19.621Z,95.20
2019-05-21T15:58:54.410Z,94.70
2019-05-21T16:01:23.312Z,94.20
2019-05-21T16:03:52.051Z,94.30
2019-05-21T16:06:20.720Z,94.50
2019-05-21T16:08:49.445Z,95.60
2019-05-21T16:11:27.951Z,96.00
2019-05-21T16:13:48.659Z,95.50
2019-05-21T16:16:17.416Z,95.60
2019-05-21T16:18:46.088Z,96.20
2019-05-21T16:21:15.699Z,96.70
2019-05-21T16:23:44.413Z,97.70
2019-05-21T16:26:13.106Z,97.90
2019-05-21T16:28:42.691Z,98.20
2019-05-21T16:31:11.278Z,98.60
2019-05-21T16:33:39.960Z,99.50
2019-05-21T16:36:08.602Z,99.90
2019-05-21T16:38:37.401Z,99.90
2019-05-21T16:41:06.225Z,99.90
2019-05-21T16:43:34.927Z,99.90
2019-05-21T16:46:04.499Z,99.90
2019-05-21T16:48:33.202Z,99.90
2019-05-21T16:51:01.970Z,99.90
2019-05-21T16:53:30.802Z,99.90
2019-05-21T16:56:01.466Z,99.90
2019-05-21T16:58:30.332Z,99.90
2019-05-21T17:00:59.034Z,99.90
2019-05-21T17:03:28.471Z,99.90
2019-05-21T17:05:57.237Z,99.90
2019-05-21T17:08:26.009Z,99.90
2019-05-21T17:10:55.929Z,99.90
2019-05-21T17:13:24.551Z,99.90
2019-05-21T17:15:53.238Z,99.90
2019-05-21T17:18:22.085Z,99.90
2019-05-21T17:20:51.219Z,99.90
2019-05-21T17:23:19.842Z,99.90
2019-05-21T17:25:49.871Z,99.90
2019-05-21T17:28:18.549Z,99.90
2019-05-21T17:30:47.659Z,99.90
2019-05-21T17:33:16.332Z,99.90
2019-05-21T17:35:45.059Z,99.90
2019-05-21T17:38:14.376Z,99.90
2019-05-21T17:40:43.806Z,99.90
2019-05-21T17:43:12.576Z,99.90
2019-05-21T17:45:43.521Z,99.90
2019-05-21T17:48:12.249Z,99.90
2019-05-21T17:50:41.745Z,99.90
2019-05-21T17:53:10.430Z,99.90
2019-05-21T17:55:39.031Z,99.90
2019-05-21T17:58:07.856Z,99.90
2019-05-21T18:00:46.922Z,99.90
2019-05-21T18:03:15.704Z,99.90
2019-05-21T18:05:45.259Z,99.90
2019-05-21T18:08:16.980Z,99.90
2019-05-21T18:10:44.715Z,99.90
2019-05-21T18:13:13.883Z,99.90
2019-05-21T18:15:42.614Z,99.90
2019-05-21T18:18:11.845Z,99.90
2019-05-21T18:20:40.825Z,99.90
2019-05-21T18:23:11.020Z,99.90
2019-05-21T18:25:39.778Z,99.90
2019-05-21T18:28:08.888Z,99.90
2019-05-21T18:30:37.691Z,99.90
2019-05-21T18:33:06.494Z,99.90
2019-05-21T18:35:36.071Z,99.90
2019-05-21T18:38:04.739Z,99.90
2019-05-21T18:40:33.348Z,99.90
2019-05-21T18:43:02.060Z,99.90
2019-05-21T18:45:30.580Z,99.90
2019-05-21T18:48:00.273Z,99.90
2019-05-21T18:50:36.402Z,99.90
2019-05-21T18:52:59.393Z,99.90
2019-05-21T18:55:28.150Z,99.90
2019-05-21T18:57:58.489Z,99.90
2019-05-21T19:00:27.291Z,99.90
2019-05-21T19:02:56.145Z,99.90
2019-05-21T19:05:24.784Z,99.90
2019-05-21T19:07:53.257Z,99.90
2019-05-21T19:10:21.859Z,99.90
2019-05-21T19:12:55.140Z,99.90
2019-05-21T19:15:24.203Z,99.90
2019-05-21T19:17:53.037Z,99.90
2019-05-21T19:20:21.761Z,99.90
2019-05-21T19:22:50.411Z,99.90
2019-05-21T19:25:19.169Z,99.90
2019-05-21T19:27:51.142Z,99.90
2019-05-21T19:30:19.868Z,99.90
2019-05-21T19:32:50.106Z,99.90
2019-05-21T19:35:19.223Z,99.90
2019-05-21T19:37:49.020Z,99.90
2019-05-21T19:40:18.467Z,99.90
2019-05-21T19:42:54.870Z,99.90
2019-05-21T19:45:18.163Z,99.90
2019-05-21T19:47:46.884Z,99.90
2019-05-21T19:50:20.066Z,99.90
2019-05-21T19:52:49.485Z,99.90
2019-05-21T19:55:26.685Z,99.90
2019-05-21T19:57:55.405Z,99.90
2019-05-21T20:00:24.536Z,99.90
2019-05-21T20:02:53.789Z,99.90
2019-05-21T20:05:23.522Z,99.90
2019-05-21T20:07:52.646Z,99.90
2019-05-21T20:10:21.868Z,99.90
2019-05-21T20:12:51.055Z,99.90
2019-05-21T20:15:20.252Z,99.90
2019-05-21T20:17:51.067Z,99.90
2019-05-21T20:20:23.173Z,99.90
2019-05-21T20:22:53.392Z,99.90
2019-05-21T20:25:24.781Z,99.90
2019-05-21T20:27:53.997Z,99.90
2019-05-21T20:30:24.867Z,99.90
2019-05-21T20:32:56.655Z,99.90
2019-05-21T20:35:27.960Z,99.90
2019-05-21T20:37:56.638Z,99.90
2019-05-21T20:40:25.447Z,99.90
2019-05-21T20:42:54.664Z,99.90
2019-05-21T20:45:25.381Z,99.90
2019-05-21T20:47:54.295Z,99.90
2019-05-21T20:50:23.261Z,99.90
2019-05-21T20:52:52.125Z,99.90
2019-05-21T20:55:21.343Z,99.90
2019-05-21T20:57:50.149Z,99.90
2019-05-21T21:00:23.418Z,99.90
2019-05-21T21:02:52.848Z,99.90
2019-05-21T21:05:21.690Z,99.90
2019-05-21T21:07:51.217Z,99.90
2019-05-21T21:10:22.146Z,99.90
2019-05-21T21:12:51.273Z,99.90
2019-05-21T21:15:20.694Z,99.90
2019-05-21T21:17:49.412Z,99.90
2019-05-21T21:20:19.799Z,99.90
2019-05-21T21:22:48.409Z,99.90
2019-05-21T21:25:21.786Z,99.90
2019-05-21T21:27:51.103Z,99.90
2019-05-21T21:30:20.665Z,99.90
2019-05-21T21:32:51.852Z,99.90
2019-05-21T21:35:20.689Z,99.90
2019-05-21T21:37:49.429Z,99.90
2019-05-21T21:40:18.692Z,99.90
2019-05-21T21:42:47.985Z,99.90
2019-05-21T21:45:16.990Z,99.90
2019-05-21T21:47:46.344Z,99.90
2019-05-21T21:50:16.032Z,99.90
2019-05-21T21:52:44.729Z,99.90
2019-05-21T21:55:13.438Z,99.90
2019-05-21T21:57:42.230Z,99.90
2019-05-21T22:00:33.467Z,99.90
2019-05-21T22:03:05.080Z,99.90
2019-05-21T22:05:34.231Z,99.90
2019-05-21T22:08:02.835Z,99.90
2019-05-21T22:10:32.270Z,99.90
2019-05-21T22:13:00.933Z,99.90
2019-05-21T22:15:29.626Z,99.90
2019-05-21T22:17:58.377Z,99.90
2019-05-21T22:20:27.461Z,99.90
2019-05-21T22:22:56.434Z,99.90
2019-05-21T22:25:25.064Z,99.90
2019-05-21T22:27:53.686Z,99.90
2019-05-21T22:30:23.150Z,99.90
2019-05-21T22:32:51.747Z,99.90
2019-05-21T22:35:20.360Z,99.90
2019-05-21T22:37:49.042Z,99.90
2019-05-21T22:40:17.807Z,99.90
2019-05-21T22:42:46.414Z,99.90
2019-05-21T22:45:15.368Z,99.90
2019-05-21T22:47:44.166Z,99.90
2019-05-21T22:50:13.742Z,99.90
2019-05-21T22:52:42.459Z,99.90
2019-05-21T22:55:11.423Z,99.90
2019-05-21T22:57:40.120Z,99.90
2019-05-21T23:00:09.431Z,99.90
2019-05-21T23:02:40.118Z,99.90
2019-05-21T23:05:10.464Z,99.90
2019-05-21T23:07:39.092Z,99.90
2019-05-21T23:10:07.980Z,99.90
2019-05-21T23:12:36.978Z,99.90
2019-05-21T23:15:23.235Z,99.90
2019-05-21T23:17:37.839Z,99.90
2019-05-21T23:20:10.619Z,99.90
2019-05-21T23:22:40.438Z,99.90
2019-05-21T23:25:10.793Z,99.90
2019-05-21T23:27:40.293Z,99.90
2019-05-21T23:30:11.176Z,99.90
2019-05-21T23:32:39.924Z,99.90
2019-05-21T23:35:11.371Z,99.90
2019-05-21T23:37:42.447Z,99.90
2019-05-21T23:40:13.342Z,99.90
2019-05-21T23:42:42.631Z,99.90
2019-05-21T23:45:12.961Z,99.90
2019-05-21T23:47:41.778Z,99.90
2019-05-21T23:50:13.094Z,99.90
2019-05-21T23:52:41.928Z,99.90
2019-05-21T23:55:11.217Z,99.90
2019-05-21T23:57:40.435Z,99.90
